sensor_id;sensor_type;location;lat;lon;timestamp;pressure;altitude;pressure_sealevel;temperature;humidity
61740;BME280;47645;45.288;12.038;2024-02-15T00:04:38;1024.3411818989666;;;6.859375;100
61740;BME280;47645;45.288;12.038;2024-02-15T00:14:39;1024.3963409341932;;;7.1041015625;100
61740;BME280;47645;45.288;12.038;2024-02-15T00:24:42;1024.4029877530302;;;6.8390625;100
61740;BME280;47645;45.288;12.038;2024-02-15T00:34:40;1024.3246584797794;;;6.716796875;100
61740;BME280;47645;45.288;12.038;2024-02-15T00:44:41;1024.2403888888284;;;6.7880859375;100
61740;BME280;47645;45.288;12.038;2024-02-15T00:54:42;1024.1625015431391;;;6.82890625;100
61740;BME280;47645;45.288;12.038;2024-02-15T01:04:43;1024.2236707010795;;;6.6962890625;100
61740;BME280;47645;45.288;12.038;2024-02-15T01:14:43;1024.2324597774889;;;6.5638671875;100
61740;BME280;47645;45.288;12.038;2024-02-15T01:24:43;1024.21689487494;;;6.4720703125;100
61740;BME280;47645;45.288;12.038;2024-02-15T01:34:44;1024.1619109481512;;;6.18671875;100
61740;BME280;47645;45.288;12.038;2024-02-15T01:44:45;1024.086596303169;;;6.3140625;100
61740;BME280;47645;45.288;12.038;2024-02-15T01:54:45;1024.1394567396312;;;6.1560546875;100
61740;BME280;47645;45.288;12.038;2024-02-15T02:04:46;1024.0652432092604;;;6.04921875;100
61740;BME280;47645;45.288;12.038;2024-02-15T02:14:47;1023.9397232314884;;;5.8861328125;100
61740;BME280;47645;45.288;12.038;2024-02-15T02:25:01;1023.8943459271554;;;5.9421875;100
61740;BME280;47645;45.288;12.038;2024-02-15T02:34:48;1023.9838017895712;;;5.6974609375;100
61740;BME280;47645;45.288;12.038;2024-02-15T02:44:48;1023.9696456140284;;;4.88203125;100
61740;BME280;47645;45.288;12.038;2024-02-15T02:54:49;1023.9384989019767;;;5.5599609375;100
61740;BME280;47645;45.288;12.038;2024-02-15T03:04:49;1023.9266459103284;;;5.62109375;100
61740;BME280;47645;45.288;12.038;2024-02-15T03:14:50;1024.0029758313171;;;5.4783203125;100
61740;BME280;47645;45.288;12.038;2024-02-15T03:24:51;1024.0552927104002;;;5.4529296875;100
61740;BME280;47645;45.288;12.038;2024-02-15T03:34:52;1023.9925721180146;;;5.442578125;100
61740;BME280;47645;45.288;12.038;2024-02-15T03:44:55;1024.0315682865241;;;5.0501953125;100
61740;BME280;47645;45.288;12.038;2024-02-15T03:54:54;1024.0530261480794;;;5.325390625;100
61740;BME280;47645;45.288;12.038;2024-02-15T04:04:55;1023.987609467322;;;5.2642578125;100
61740;BME280;47645;45.288;12.038;2024-02-15T04:14:55;1023.9830402107224;;;4.8921875;100
61740;BME280;47645;45.288;12.038;2024-02-15T04:24:57;1023.8597772056012;;;5.19296875;100
61740;BME280;47645;45.288;12.038;2024-02-15T04:34:55;1023.9777439711439;;;5.0654296875;100
61740;BME280;47645;45.288;12.038;2024-02-15T04:44:57;1023.897252733376;;;5.0501953125;100
61740;BME280;47645;45.288;12.038;2024-02-15T04:54:58;1023.923510108269;;;5.0146484375;100
61740;BME280;47645;45.288;12.038;2024-02-15T05:04:57;1023.8755533231773;;;4.90234375;100
61740;BME280;47645;45.288;12.038;2024-02-15T05:14:58;1023.8215373619458;;;4.8310546875;100
61740;BME280;47645;45.288;12.038;2024-02-15T05:24:58;1023.7669460492028;;;4.769921875;100
61740;BME280;47645;45.288;12.038;2024-02-15T05:35:03;1023.8827456392819;;;4.759765625;100
61740;BME280;47645;45.288;12.038;2024-02-15T05:45:28;1023.987968848753;;;4.02578125;100
61740;BME280;47645;45.288;12.038;2024-02-15T05:55:00;1023.8934422465999;;;4.64765625;100
61740;BME280;47645;45.288;12.038;2024-02-15T06:05:05;1024.0707122335614;;;4.204296875;100
61740;BME280;47645;45.288;12.038;2024-02-15T06:15:03;1023.9769425805987;;;4.5099609375;100
61740;BME280;47645;45.288;12.038;2024-02-15T06:25:02;1024.0289484120124;;;4.555859375;100
61740;BME280;47645;45.288;12.038;2024-02-15T06:45:04;1024.3505253184248;;;4.540625;100
61740;BME280;47645;45.288;12.038;2024-02-15T06:55:05;1024.3708759045535;;;4.6375;100
61740;BME280;47645;45.288;12.038;2024-02-15T07:00:10;1024.4311031749683;;;4.6884765625;100
61740;BME280;47645;45.288;12.038;2024-02-15T07:10:05;1024.4382649749614;;;4.7240234375;100
61740;BME280;47645;45.288;12.038;2024-02-15T07:20:07;1024.5317552650004;;;4.8158203125;100
61740;BME280;47645;45.288;12.038;2024-02-15T07:30:07;1024.6804815721398;;;4.96875;100
61740;BME280;47645;45.288;12.038;2024-02-15T07:40:09;1024.6375937841187;;;4.90234375;100
61740;BME280;47645;45.288;12.038;2024-02-15T07:50:10;1024.6359474196531;;;4.769921875;100
61740;BME280;47645;45.288;12.038;2024-02-15T08:00:11;1024.537807210553;;;5.228515625;100
61740;BME280;47645;45.288;12.038;2024-02-15T08:10:14;1024.5333184043118;;;5.549609375;100
61740;BME280;47645;45.288;12.038;2024-02-15T08:20:10;1024.3934855565358;;;5.7943359375;100
61740;BME280;47645;45.288;12.038;2024-02-15T08:30:11;1024.5550422455206;;;5.8861328125;100
61740;BME280;47645;45.288;12.038;2024-02-15T08:40:12;1024.6058223875148;;;6.04921875;100
61740;BME280;47645;45.288;12.038;2024-02-15T08:50:12;1024.6915307741492;;;6.288671875;100
61740;BME280;47645;45.288;12.038;2024-02-15T09:00:14;1024.6824730260537;;;6.71171875;100
61740;BME280;47645;45.288;12.038;2024-02-15T09:10:12;1024.6607234671785;;;7.2263671875;100
61740;BME280;47645;45.288;12.038;2024-02-15T09:20:16;1024.5493112503323;;;7.5626953125;100
61740;BME280;47645;45.288;12.038;2024-02-15T09:30:13;1024.640786710009;;;7.7666015625;100
61740;BME280;47645;45.288;12.038;2024-02-15T09:40:13;1024.6325902811159;;;7.9806640625;100
61740;BME280;47645;45.288;12.038;2024-02-15T09:50:16;1024.5851788669488;;;8.2099609375;100
61740;BME280;47645;45.288;12.038;2024-02-15T10:00:15;1024.5818339761638;;;8.118359375;100
61740;BME280;47645;45.288;12.038;2024-02-15T10:10:18;1024.6592906131655;;;8.4904296875;100
61740;BME280;47645;45.288;12.038;2024-02-15T10:20:15;1024.6454830292269;;;8.8572265625;100
61740;BME280;47645;45.288;12.038;2024-02-15T10:30:18;1024.544082464191;;;9.4025390625;100
61740;BME280;47645;45.288;12.038;2024-02-15T10:40:18;1024.4253297880082;;;9.7951171875;100
61740;BME280;47645;45.288;12.038;2024-02-15T10:50:18;1024.375900417349;;;10.4474609375;100
61740;BME280;47645;45.288;12.038;2024-02-15T11:00:22;1024.2237766185035;;;11.048828125;100
61740;BME280;47645;45.288;12.038;2024-02-15T11:10:19;1023.9921615635109;;;11.2578125;100
61740;BME280;47645;45.288;12.038;2024-02-15T11:20:46;1023.7841886173425;;;11.7318359375;100
61740;BME280;47645;45.288;12.038;2024-02-15T11:30:32;1023.6725576847401;;;12.0478515625;100
61740;BME280;47645;45.288;12.038;2024-02-15T11:40:24;1023.6198652690516;;;12.1701171875;100
61740;BME280;47645;45.288;12.038;2024-02-15T11:50:23;1023.5068273903402;;;12.1140625;100
61740;BME280;47645;45.288;12.038;2024-02-15T12:20:25;1023.1804182296588;;;13.072265625;100
61740;BME280;47645;45.288;12.038;2024-02-15T12:30:32;1023.0344894589098;;;13.8724609375;100
61740;BME280;47645;45.288;12.038;2024-02-15T12:40:31;1022.8757794626216;;;13.8826171875;100
61740;BME280;47645;45.288;12.038;2024-02-15T12:50:29;1022.7773849531503;;;14.0048828125;100
61740;BME280;47645;45.288;12.038;2024-02-15T13:00:30;1022.6978235109173;;;14.34140625;100
61740;BME280;47645;45.288;12.038;2024-02-15T13:10:29;1022.6504699057435;;;14.6115234375;100
61740;BME280;47645;45.288;12.038;2024-02-15T13:20:32;1022.4795234948226;;;14.7490234375;100
61740;BME280;47645;45.288;12.038;2024-02-15T13:30:31;1022.3976678707528;;;14.8154296875;100
61740;BME280;47645;45.288;12.038;2024-02-15T13:40:32;1022.282642950036;;;14.5400390625;100
61740;BME280;47645;45.288;12.038;2024-02-15T13:50:32;1022.2325129694909;;;14.5962890625;100
61740;BME280;47645;45.288;12.038;2024-02-15T14:00:34;1022.1422301215305;;;14.4943359375;100
61740;BME280;47645;45.288;12.038;2024-02-15T14:10:35;1021.9172434975302;;;14.4228515625;100
61740;BME280;47645;45.288;12.038;2024-02-15T14:20:34;1021.8529478839622;;;14.33125;100
61740;BME280;47645;45.288;12.038;2024-02-15T14:40:37;1021.7267319691248;;;13.48515625;100
61740;BME280;47645;45.288;12.038;2024-02-15T14:50:37;1021.6884994567758;;;13.393359375;100
61740;BME280;47645;45.288;12.038;2024-02-15T15:00:38;1021.747861055476;;;13.1080078125;100
61740;BME280;47645;45.288;12.038;2024-02-15T15:20:39;1021.8148768018644;;;12.465625;100
61740;BME280;47645;45.288;12.038;2024-02-15T15:30:40;1021.8010213061057;;;12.098828125;100
61740;BME280;47645;45.288;12.038;2024-02-15T15:40:42;1021.806258123957;;;11.7572265625;100
61740;BME280;47645;45.288;12.038;2024-02-15T15:50:44;1021.8246606498766;;;11.6501953125;100
61740;BME280;47645;45.288;12.038;2024-02-15T16:00:45;1021.8480211425557;;;11.563671875;100
61740;BME280;47645;45.288;12.038;2024-02-15T16:10:44;1021.7838795198666;;;11.2220703125;100
61740;BME280;47645;45.288;12.038;2024-02-15T16:20:46;1021.836364253002;;;10.9927734375;100
61740;BME280;47645;45.288;12.038;2024-02-15T16:30:45;1021.8447784134838;;;10.814453125;100
61740;BME280;47645;45.288;12.038;2024-02-15T16:40:45;1021.9235534521329;;;10.8654296875;100
61740;BME280;47645;45.288;12.038;2024-02-15T16:50:47;1021.9368877145565;;;10.4677734375;100
61740;BME280;47645;45.288;12.038;2024-02-15T17:00:47;1021.9193669241588;;;10.4830078125;100
61740;BME280;47645;45.288;12.038;2024-02-15T17:10:48;1021.8863018270688;;;10.309765625;100
61740;BME280;47645;45.288;12.038;2024-02-15T17:20:48;1021.9020237669367;;;10.31484375;100
61740;BME280;47645;45.288;12.038;2024-02-15T17:30:50;1021.9448120182992;;;10.1314453125;100
61740;BME280;47645;45.288;12.038;2024-02-15T17:40:50;1022.0398410679118;;;9.8970703125;100
61740;BME280;47645;45.288;12.038;2024-02-15T17:50:51;1022.1297398721022;;;9.8357421875;100
61740;BME280;47645;45.288;12.038;2024-02-15T18:00:53;1022.1921618801912;;;9.657421875;100
61740;BME280;47645;45.288;12.038;2024-02-15T18:10:56;1022.2706895867269;;;9.6421875;100
61740;BME280;47645;45.288;12.038;2024-02-15T18:20:52;1022.1945938220202;;;9.530078125;100
61740;BME280;47645;45.288;12.038;2024-02-15T18:30:53;1022.1864264461024;;;9.5044921875;100
61740;BME280;47645;45.288;12.038;2024-02-15T18:40:57;1022.0751703749395;;;9.3974609375;100
61740;BME280;47645;45.288;12.038;2024-02-15T18:50:54;1022.1057803421266;;;9.428125;100
61740;BME280;47645;45.288;12.038;2024-02-15T19:00:55;1022.0747559497568;;;9.346484375;100
61740;BME280;47645;45.288;12.038;2024-02-15T19:10:56;1022.1124278296659;;;9.1884765625;100
61740;BME280;47645;45.288;12.038;2024-02-15T19:20:57;1022.1226983328993;;;8.9591796875;100
61740;BME280;47645;45.288;12.038;2024-02-15T19:30:58;1022.1143872285173;;;9.0763671875;100
61740;BME280;47645;45.288;12.038;2024-02-15T19:40:59;1022.0365297018105;;;8.7248046875;100
61740;BME280;47645;45.288;12.038;2024-02-15T19:50:58;1022.1251461048342;;;8.918359375;100
61740;BME280;47645;45.288;12.038;2024-02-15T20:01:00;1022.0810906490714;;;8.8572265625;100
61740;BME280;47645;45.288;12.038;2024-02-15T20:11:00;1022.2252930107036;;;8.459765625;100
61740;BME280;47645;45.288;12.038;2024-02-15T20:21:01;1022.0621074885044;;;8.7349609375;100
61740;BME280;47645;45.288;12.038;2024-02-15T20:31:01;1021.9771972591868;;;8.6330078125;100
61740;BME280;47645;45.288;12.038;2024-02-15T20:41:03;1021.9652189457083;;;8.5158203125;100
61740;BME280;47645;45.288;12.038;2024-02-15T20:51:02;1021.9806597309555;;;8.46484375;100
61740;BME280;47645;45.288;12.038;2024-02-15T21:01:03;1022.009863308038;;;8.3884765625;100
61740;BME280;47645;45.288;12.038;2024-02-15T21:11:03;1022.0351933307782;;;8.2763671875;100
61740;BME280;47645;45.288;12.038;2024-02-15T21:21:09;1021.9764957109088;;;8.2048828125;100
61740;BME280;47645;45.288;12.038;2024-02-15T21:31:05;1021.9342061078521;;;8.1744140625;100
61740;BME280;47645;45.288;12.038;2024-02-15T21:41:05;1021.9061215458281;;;8.05703125;100
61740;BME280;47645;45.288;12.038;2024-02-15T21:51:06;1021.9094991184996;;;8.046875;100
61740;BME280;47645;45.288;12.038;2024-02-15T22:01:07;1021.7872874496392;;;7.8939453125;100
61740;BME280;47645;45.288;12.038;2024-02-15T22:11:11;1021.781524223266;;;7.8837890625;100
61740;BME280;47645;45.288;12.038;2024-02-15T22:21:10;1021.7704327420512;;;7.6291015625;100
61740;BME280;47645;45.288;12.038;2024-02-15T22:31:15;1021.765752036437;;;7.6341796875;100
61740;BME280;47645;45.288;12.038;2024-02-15T22:41:09;1021.8335849747235;;;7.476171875;100
61740;BME280;47645;45.288;12.038;2024-02-15T22:51:10;1021.8250280599954;;;7.486328125;100
61740;BME280;47645;45.288;12.038;2024-02-15T23:01:12;1021.8552285814949;;;7.5423828125;100
61740;BME280;47645;45.288;12.038;2024-02-15T23:11:11;1021.8274929942309;;;7.39453125;100
61740;BME280;47645;45.288;12.038;2024-02-15T23:21:11;1021.8341573348631;;;7.3283203125;100
61740;BME280;47645;45.288;12.038;2024-02-15T23:31:13;1021.8779137842798;;;7.282421875;100
61740;BME280;47645;45.288;12.038;2024-02-15T23:41:13;1021.9346904911877;;;7.27734375;100
61740;BME280;47645;45.288;12.038;2024-02-15T23:51:13;1021.8642878959861;;;7.2009765625;100
